createdAt,value
2019-01-25T00:08:51.046Z,-4.14
2019-01-25T00:11:21.617Z,-4.10
2019-01-25T00:13:53.938Z,-4.23
2019-01-25T00:16:24.265Z,-4.17
2019-01-25T00:18:54.653Z,-4.18
2019-01-25T00:30:13.302Z,-3.96
2019-01-25T00:35:28.067Z,-3.76
2019-01-25T00:37:58.475Z,-3.94
2019-01-25T00:40:28.803Z,-3.99
2019-01-25T00:42:59.207Z,-3.94
2019-01-25T00:45:29.516Z,-3.76
2019-01-25T00:47:59.775Z,-3.84
2019-01-25T00:50:30.347Z,-3.68
2019-01-25T00:53:03.231Z,-3.54
2019-01-25T00:55:33.727Z,-3.52
2019-01-25T00:58:04.078Z,-3.73
2019-01-25T01:00:53.359Z,-4.04
2019-01-25T01:03:23.778Z,-4.05
2019-01-25T01:06:05.733Z,-4.00
2019-01-25T01:08:36.067Z,-3.98
2019-01-25T01:11:06.324Z,-3.99
2019-01-25T01:13:39.039Z,-4.03
2019-01-25T01:18:51.493Z,-4.10
2019-01-25T01:21:40.931Z,-4.03
2019-01-25T01:24:11.222Z,-3.98
2019-01-25T01:26:43.804Z,-3.92
2019-01-25T01:31:56.689Z,-3.74
2019-01-25T01:34:27.412Z,-3.89
2019-01-25T01:36:57.918Z,-3.81
2019-01-25T01:39:28.501Z,-3.54
2019-01-25T01:41:58.746Z,-3.60
2019-01-25T01:44:29.023Z,-3.79
2019-01-25T01:47:01.575Z,-3.50
2019-01-25T01:49:31.839Z,-3.65
2019-01-25T01:52:02.335Z,-3.58
2019-01-25T01:54:34.616Z,-3.48
2019-01-25T01:57:04.862Z,-3.50
2019-01-25T01:59:35.153Z,-3.36
2019-01-25T02:05:36.464Z,-3.62
2019-01-25T02:08:18.654Z,-3.57
2019-01-25T02:10:48.905Z,-3.38
2019-01-25T02:13:19.498Z,-3.43
2019-01-25T02:18:36.262Z,-3.91
2019-01-25T02:24:08.788Z,-3.71
2019-01-25T02:26:39.072Z,-3.60
2019-01-25T02:29:10.277Z,-3.62
2019-01-25T02:34:44.461Z,-3.70
2019-01-25T02:37:15.660Z,-3.74
2019-01-25T02:43:05.369Z,-3.58
2019-01-25T02:48:24.850Z,-3.79
2019-01-25T02:50:55.241Z,-3.64
2019-01-25T02:56:29.637Z,-3.53
2019-01-25T03:04:34.377Z,-3.72
2019-01-25T03:09:56.348Z,-3.72
2019-01-25T03:12:26.615Z,-3.53
2019-01-25T03:14:57.972Z,-3.61
2019-01-25T03:23:25.583Z,-4.21
2019-01-25T03:25:55.893Z,-3.90
2019-01-25T03:31:32.507Z,-3.78
2019-01-25T03:42:35.484Z,-3.99
2019-01-25T03:48:13.064Z,-4.01
2019-01-25T03:50:43.306Z,-4.15
2019-01-25T03:53:13.588Z,-4.10
2019-01-25T03:55:43.937Z,-4.38
2019-01-25T03:58:14.275Z,-4.25
2019-01-25T04:00:44.549Z,-4.37
2019-01-25T04:03:35.271Z,-4.29
2019-01-25T04:06:06.169Z,-4.16
2019-01-25T04:08:51.876Z,-4.42
2019-01-25T04:11:25.197Z,-4.33
2019-01-25T04:13:55.521Z,-4.26
2019-01-25T04:16:26.094Z,-4.35
2019-01-25T04:21:38.534Z,-4.45
2019-01-25T04:24:08.927Z,-4.30
2019-01-25T04:26:41.713Z,-4.27
2019-01-25T04:29:12.050Z,-4.13
2019-01-25T04:31:42.337Z,-4.09
2019-01-25T04:34:13.190Z,-3.88
2019-01-25T04:39:49.268Z,-4.24
2019-01-25T04:42:19.538Z,-3.91
2019-01-25T04:47:35.314Z,-4.24
2019-01-25T04:53:12.126Z,-3.87
2019-01-25T04:55:42.656Z,-4.06
2019-01-25T04:58:33.659Z,-4.12
2019-01-25T05:01:25.037Z,-4.19
2019-01-25T05:03:55.463Z,-4.11
2019-01-25T05:06:25.785Z,-4.20
2019-01-25T05:08:56.295Z,-4.22
2019-01-25T05:11:28.682Z,-3.94
2019-01-25T05:13:59.090Z,-4.04
2019-01-25T05:16:29.697Z,-4.02
2019-01-25T05:19:18.915Z,-4.20
2019-01-25T05:21:49.215Z,-4.13
2019-01-25T05:24:22.461Z,-4.04
2019-01-25T05:29:58.295Z,-3.88
2019-01-25T05:41:28.173Z,-3.84
2019-01-25T05:44:01.285Z,-3.78
2019-01-25T05:46:45.802Z,-3.81
2019-01-25T05:49:17.148Z,-3.99
2019-01-25T05:51:47.468Z,-3.88
2019-01-25T05:54:17.755Z,-3.92
2019-01-25T05:56:48.251Z,-3.96
2019-01-25T06:02:21.573Z,-4.11
2019-01-25T06:10:47.565Z,-4.03
2019-01-25T06:13:30.879Z,-3.82
2019-01-25T06:16:01.357Z,-4.08
2019-01-25T06:18:31.708Z,-4.16
2019-01-25T06:21:02.168Z,-4.22
2019-01-25T06:23:32.470Z,-4.30
2019-01-25T06:26:02.984Z,-4.40
2019-01-25T06:28:33.297Z,-4.22
2019-01-25T06:31:29.144Z,-4.39
2019-01-25T06:36:45.754Z,-4.19
2019-01-25T06:39:16.097Z,-4.20
2019-01-25T06:42:05.487Z,-4.19
2019-01-25T06:44:36.017Z,-3.98
2019-01-25T06:49:53.073Z,-4.06
2019-01-25T06:55:18.075Z,-3.96
2019-01-25T07:03:58.871Z,-4.29
2019-01-25T07:06:29.623Z,-4.40
2019-01-25T07:11:51.448Z,-4.23
2019-01-25T07:17:42.685Z,-4.22
2019-01-25T07:20:14.291Z,-4.24
2019-01-25T07:22:44.622Z,-4.12
2019-01-25T07:25:29.356Z,-4.29
2019-01-25T07:27:59.695Z,-4.27
2019-01-25T07:30:33.557Z,-4.42
2019-01-25T07:33:04.037Z,-4.32
2019-01-25T07:35:34.305Z,-4.32
2019-01-25T07:38:04.681Z,-4.09
2019-01-25T07:43:25.101Z,-4.33
2019-01-25T07:51:34.535Z,-4.37
2019-01-25T07:54:24.045Z,-4.11
2019-01-25T07:56:54.818Z,-4.32
2019-01-25T07:59:25.811Z,-4.29
2019-01-25T08:02:14.334Z,-4.37
2019-01-25T08:07:35.184Z,-3.77
2019-01-25T08:13:06.871Z,-3.69
2019-01-25T08:15:54.572Z,-3.66
2019-01-25T08:18:36.959Z,-4.08
2019-01-25T08:21:07.145Z,-3.98
2019-01-25T08:29:33.212Z,-3.41
2019-01-25T08:32:03.543Z,-3.78
2019-01-25T08:34:34.685Z,-3.85
2019-01-25T08:37:25.412Z,-3.73
2019-01-25T08:39:57.370Z,-3.47
2019-01-25T08:42:28.420Z,-3.49
2019-01-25T08:44:59.810Z,-2.93
2019-01-25T08:47:37.170Z,-2.61
2019-01-25T08:50:11.091Z,-3.00
2019-01-25T08:52:42.528Z,-3.50
2019-01-25T08:55:14.656Z,-3.33
2019-01-25T08:57:45.048Z,-3.31
2019-01-25T09:00:17.875Z,-3.10
2019-01-25T09:05:32.310Z,-2.23
2019-01-25T09:08:02.663Z,-2.35
2019-01-25T09:10:33.084Z,-2.66
2019-01-25T09:13:03.510Z,-2.98
2019-01-25T09:15:33.861Z,-2.75
2019-01-25T09:21:01.746Z,-2.42
2019-01-25T09:23:32.022Z,-2.58
2019-01-25T09:26:02.300Z,-2.71
2019-01-25T09:34:11.150Z,-2.20
2019-01-25T09:36:47.986Z,-2.27
2019-01-25T09:39:18.203Z,-2.12
2019-01-25T09:41:50.550Z,-2.39
2019-01-25T09:44:21.211Z,-3.33
2019-01-25T09:46:51.470Z,-2.86
2019-01-25T09:49:23.632Z,-2.32
2019-01-25T09:52:08.013Z,-2.40
2019-01-25T09:54:42.943Z,-1.97
2019-01-25T09:57:13.585Z,-1.71
2019-01-25T09:59:44.162Z,-2.81
2019-01-25T10:02:14.457Z,-2.44
2019-01-25T10:04:44.741Z,-2.34
2019-01-25T10:07:15.868Z,-2.76
2019-01-25T10:13:12.898Z,-2.64
2019-01-25T10:15:43.351Z,-2.66
2019-01-25T10:18:26.248Z,-3.03
2019-01-25T10:23:47.519Z,-2.52
2019-01-25T10:26:17.924Z,-2.19
2019-01-25T10:28:48.177Z,-2.17
2019-01-25T10:40:01.288Z,-1.59
2019-01-25T10:42:31.597Z,-1.93
2019-01-25T10:45:04.410Z,-1.99
2019-01-25T10:47:39.088Z,-1.59
2019-01-25T10:50:09.383Z,-1.41
2019-01-25T10:52:39.723Z,-1.47
2019-01-25T10:55:10.356Z,-1.73
2019-01-25T10:57:43.117Z,-2.19
2019-01-25T11:00:20.110Z,-1.62
2019-01-25T11:03:13.071Z,-1.54
2019-01-25T11:05:43.498Z,-1.36
2019-01-25T11:08:33.008Z,-1.16
2019-01-25T11:11:03.604Z,-1.10
2019-01-25T11:13:53.264Z,-1.90
2019-01-25T11:16:23.661Z,-1.70
2019-01-25T11:18:54.086Z,-1.52
2019-01-25T11:21:26.896Z,-1.58
2019-01-25T11:23:58.547Z,-1.55
2019-01-25T11:26:29.005Z,-1.46
2019-01-25T11:31:47.544Z,-2.04
2019-01-25T11:34:19.290Z,-2.10
2019-01-25T11:36:51.082Z,-1.71
2019-01-25T11:39:21.333Z,-1.69
2019-01-25T11:41:53.313Z,-1.33
2019-01-25T11:44:23.737Z,-1.70
2019-01-25T11:46:54.033Z,-1.55
2019-01-25T11:49:24.336Z,-1.96
2019-01-25T11:52:13.918Z,-2.07
2019-01-25T12:03:15.068Z,-2.00
2019-01-25T12:08:33.309Z,-2.03
2019-01-25T12:13:45.626Z,-1.66
2019-01-25T12:16:22.917Z,-1.41
2019-01-25T12:19:06.488Z,-1.68
2019-01-25T12:21:48.973Z,-1.13
2019-01-25T12:24:19.476Z,-1.10
2019-01-25T12:26:49.933Z,-1.02
2019-01-25T12:29:20.387Z,-1.51
2019-01-25T12:34:40.746Z,-1.73
2019-01-25T12:37:11.168Z,-1.89
2019-01-25T12:39:42.596Z,-2.10
2019-01-25T12:42:12.947Z,-1.51
2019-01-25T12:44:43.461Z,-1.46
2019-01-25T12:47:13.811Z,-1.92
2019-01-25T12:49:44.603Z,-1.43
2019-01-25T12:52:14.898Z,-1.61
2019-01-25T12:54:45.379Z,-1.87
2019-01-25T12:57:38.133Z,-1.50
2019-01-25T13:03:12.099Z,-1.48
2019-01-25T13:05:43.380Z,-1.66
2019-01-25T13:13:55.339Z,-1.57
2019-01-25T13:16:25.869Z,-1.36
2019-01-25T13:18:56.229Z,-1.70
2019-01-25T13:21:26.561Z,-1.89
2019-01-25T13:29:26.390Z,-1.15
2019-01-25T13:32:00.611Z,-1.14
2019-01-25T13:44:15.099Z,-1.70
2019-01-25T13:50:52.038Z,-1.62
2019-01-25T14:15:23.890Z,-1.36
2019-01-25T14:21:02.791Z,-1.68
2019-01-25T14:23:35.622Z,-1.56
2019-01-25T14:26:19.105Z,-1.61
2019-01-25T14:28:49.460Z,-1.49
2019-01-25T14:31:19.769Z,-1.52
2019-01-25T14:36:45.739Z,-1.60
2019-01-25T14:39:16.217Z,-1.85
2019-01-25T14:45:07.339Z,-1.63
2019-01-25T14:47:37.869Z,-1.42
2019-01-25T14:50:11.857Z,-1.54
2019-01-25T14:52:42.343Z,-1.66
2019-01-25T14:55:12.700Z,-1.45
2019-01-25T14:57:43.326Z,-1.64
2019-01-25T15:00:16.189Z,-1.37
2019-01-25T15:02:46.591Z,-1.40
2019-01-25T15:13:26.762Z,-1.21
2019-01-25T15:15:57.113Z,-1.28
2019-01-25T15:18:27.394Z,-1.28
2019-01-25T15:20:57.757Z,-1.29
2019-01-25T15:23:28.443Z,-1.65
2019-01-25T15:25:58.814Z,-1.40
2019-01-25T15:28:29.439Z,-1.64
2019-01-25T15:30:59.764Z,-1.52
2019-01-25T15:33:30.540Z,-1.31
2019-01-25T15:36:01.138Z,-1.62
2019-01-25T15:38:31.470Z,-1.72
2019-01-25T15:41:02.280Z,-1.90
2019-01-25T15:43:32.956Z,-1.80
2019-01-25T15:46:05.774Z,-1.61
2019-01-25T15:48:36.420Z,-1.89
2019-01-25T15:51:08.150Z,-1.81
2019-01-25T15:53:38.759Z,-1.70
2019-01-25T15:56:09.213Z,-1.71
2019-01-25T15:58:39.720Z,-1.92
2019-01-25T16:01:31.241Z,-2.15
2019-01-25T16:07:04.145Z,-1.98
2019-01-25T16:09:34.491Z,-2.01
2019-01-25T16:12:04.906Z,-1.75
2019-01-25T16:14:35.217Z,-1.86
2019-01-25T16:17:05.964Z,-1.84
2019-01-25T16:19:39.062Z,-2.10
2019-01-25T16:22:09.408Z,-2.06
2019-01-25T16:24:39.719Z,-2.03
2019-01-25T16:27:10.499Z,-2.02
2019-01-25T16:35:50.016Z,-1.85
2019-01-25T16:41:01.911Z,-1.89
2019-01-25T16:46:47.674Z,-2.12
2019-01-25T16:49:20.143Z,-1.82
2019-01-25T16:51:50.481Z,-1.80
2019-01-25T16:54:20.777Z,-1.99
2019-01-25T16:56:51.044Z,-2.03
2019-01-25T17:02:04.865Z,-2.09
2019-01-25T17:04:35.176Z,-2.11
2019-01-25T17:07:05.981Z,-2.03
2019-01-25T17:09:36.322Z,-1.88
2019-01-25T17:12:06.712Z,-1.80
2019-01-25T17:14:37.328Z,-1.89
2019-01-25T17:17:07.699Z,-1.73
2019-01-25T17:19:37.984Z,-1.66
2019-01-25T17:22:08.381Z,-1.77
2019-01-25T17:24:38.921Z,-1.81
2019-01-25T17:32:55.234Z,-1.38
2019-01-25T17:35:25.945Z,-1.73
2019-01-25T17:40:46.400Z,-1.50
2019-01-25T17:43:18.986Z,-1.58
2019-01-25T17:45:49.358Z,-1.79
2019-01-25T17:48:20.590Z,-1.49
2019-01-25T17:50:57.427Z,-1.80
2019-01-25T17:56:10.748Z,-1.73
2019-01-25T17:58:41.609Z,-1.56
2019-01-25T18:03:55.720Z,-2.07
2019-01-25T18:06:28.765Z,-2.00
2019-01-25T18:08:59.252Z,-2.08
2019-01-25T18:14:12.687Z,-2.17
2019-01-25T18:16:44.028Z,-2.05
2019-01-25T18:19:14.895Z,-2.04
2019-01-25T18:21:45.554Z,-2.01
2019-01-25T18:24:16.286Z,-2.11
2019-01-25T18:30:30.635Z,-2.39
2019-01-25T18:33:00.863Z,-2.44
2019-01-25T18:35:31.390Z,-2.40
2019-01-25T18:38:09.221Z,-2.37
2019-01-25T18:40:39.614Z,-2.40
2019-01-25T18:43:11.201Z,-2.31
2019-01-25T18:48:38.898Z,-2.20
2019-01-25T18:57:43.988Z,-2.23
2019-01-25T19:00:17.573Z,-2.54
2019-01-25T19:03:07.372Z,-2.69
2019-01-25T19:05:37.798Z,-2.57
2019-01-25T19:08:08.663Z,-2.71
2019-01-25T19:10:39.307Z,-2.44
2019-01-25T19:15:52.872Z,-2.54
2019-01-25T19:18:23.512Z,-2.61
2019-01-25T19:20:55.978Z,-2.53
2019-01-25T19:23:26.490Z,-2.55
2019-01-25T19:25:57.033Z,-2.75
2019-01-25T19:28:27.612Z,-2.46
2019-01-25T19:30:58.282Z,-2.80
2019-01-25T19:33:28.596Z,-2.65
2019-01-25T19:35:58.950Z,-2.69
2019-01-25T19:38:31.139Z,-2.71
2019-01-25T19:43:44.727Z,-2.79
2019-01-25T19:46:15.189Z,-2.81
2019-01-25T19:57:34.009Z,-2.73
2019-01-25T20:03:12.933Z,-2.81
2019-01-25T20:05:43.354Z,-2.75
2019-01-25T20:08:13.774Z,-2.72
2019-01-25T20:11:10.548Z,-2.68
2019-01-25T20:13:40.822Z,-2.80
2019-01-25T20:16:13.355Z,-2.68
2019-01-25T20:21:55.210Z,-2.98
2019-01-25T20:24:27.509Z,-2.68
2019-01-25T20:29:46.814Z,-2.48
2019-01-25T20:32:30.577Z,-2.40
2019-01-25T20:38:10.140Z,-2.38
2019-01-25T20:40:40.524Z,-2.50
2019-01-25T20:45:54.111Z,-2.41
2019-01-25T20:48:24.822Z,-2.38
2019-01-25T20:53:38.245Z,-2.50
2019-01-25T20:56:11.285Z,-2.50
2019-01-25T21:07:27.184Z,-2.34
2019-01-25T21:09:57.708Z,-2.40
2019-01-25T21:12:29.934Z,-2.38
2019-01-25T21:15:00.285Z,-2.34
2019-01-25T21:17:30.536Z,-2.44
2019-01-25T21:20:01.267Z,-2.44
2019-01-25T21:22:33.148Z,-2.33
2019-01-25T21:25:15.106Z,-2.43
2019-01-25T21:30:39.763Z,-2.45
2019-01-25T21:33:26.718Z,-2.44
2019-01-25T21:36:11.794Z,-2.40
2019-01-25T21:38:42.080Z,-2.25
2019-01-25T21:47:04.421Z,-2.31
2019-01-25T21:49:48.413Z,-2.46
2019-01-25T21:52:18.776Z,-2.23
2019-01-25T21:58:12.364Z,-2.27
2019-01-25T22:00:43.665Z,-2.14
2019-01-25T22:03:16.217Z,-2.26
2019-01-25T22:05:48.785Z,-2.17
2019-01-25T22:08:19.100Z,-2.15
2019-01-25T22:10:54.030Z,-2.21
2019-01-25T22:13:24.508Z,-2.39
2019-01-25T22:15:54.821Z,-2.12
2019-01-25T22:18:25.462Z,-2.12
2019-01-25T22:20:55.808Z,-2.21
2019-01-25T22:23:32.396Z,-2.08
2019-01-25T22:26:02.671Z,-2.14
2019-01-25T22:28:33.570Z,-2.03
2019-01-25T22:31:05.507Z,-2.07
2019-01-25T22:33:35.957Z,-2.09
2019-01-25T22:36:06.344Z,-2.07
2019-01-25T22:41:37.920Z,-1.95
2019-01-25T22:47:02.209Z,-2.07
2019-01-25T22:49:32.575Z,-2.07
2019-01-25T22:52:04.844Z,-1.94
2019-01-25T22:54:35.236Z,-2.06
2019-01-25T22:57:05.548Z,-2.02
2019-01-25T22:59:36.298Z,-1.87
2019-01-25T23:02:06.806Z,-1.90
2019-01-25T23:05:16.124Z,-1.82
2019-01-25T23:07:46.374Z,-1.90
2019-01-25T23:10:18.996Z,-1.77
2019-01-25T23:12:49.666Z,-1.75
2019-01-25T23:18:27.181Z,-1.67
2019-01-25T23:23:44.939Z,-1.68
2019-01-25T23:29:00.314Z,-1.67
2019-01-25T23:31:30.643Z,-1.70
2019-01-25T23:34:22.860Z,-1.59
2019-01-25T23:36:53.889Z,-1.57
2019-01-25T23:42:11.114Z,-1.57
2019-01-25T23:44:41.510Z,-1.66
2019-01-25T23:49:54.557Z,-1.78
2019-01-25T23:52:24.844Z,-1.47
2019-01-25T23:54:55.109Z,-1.46
2019-01-25T23:57:25.401Z,-1.35
2019-01-25T23:59:55.642Z,-1.40
